Time,TemperatureF,DewpointF,PressureIn,WindDirection,WindDirectionDegrees,WindSpeedMPH,WindSpeedGustMPH,Humidity,HourlyPrecipIn,Conditions,Clouds,dailyrainin,SoftwareType,DateUTC
2013-07-24 00:00:00,74.8,74.0,30.01,SSE,154,0.0,0.0,98,0.00,,,0.00,weatherlink.com 1.10,2013-07-24 04:00:00,
2013-07-24 00:16:00,74.9,74.0,30.01,SSE,148,0.0,0.0,98,0.00,,,0.00,weatherlink.com 1.10,2013-07-24 04:16:00,
2013-07-24 00:31:00,74.9,74.0,30.01,SE,139,0.0,0.0,98,0.00,,,0.00,weatherlink.com 1.10,2013-07-24 04:31:00,
2013-07-24 00:46:00,75.1,75.0,30.00,South,187,0.0,0.0,98,0.00,,,0.00,weatherlink.com 1.10,2013-07-24 04:46:00,
2013-07-24 01:01:00,75.3,75.0,29.99,SSE,163,3.0,4.0,98,0.00,,,0.00,weatherlink.com 1.10,2013-07-24 05:01:00,
2013-07-24 01:16:00,75.5,75.0,29.99,SSE,167,0.0,2.0,98,0.00,,,0.00,weatherlink.com 1.10,2013-07-24 05:16:00,
2013-07-24 01:31:00,75.5,75.0,29.98,SSE,160,0.0,0.0,98,0.00,,,0.00,weatherlink.com 1.10,2013-07-24 05:31:00,
2013-07-24 01:46:00,75.4,75.0,29.97,SSE,153,1.0,2.0,98,0.00,,,0.00,weatherlink.com 1.10,2013-07-24 05:46:00,
2013-07-24 02:01:00,75.3,75.0,29.97,SE,141,1.0,2.0,98,0.00,,,0.00,weatherlink.com 1.10,2013-07-24 06:01:00,
2013-07-24 02:16:00,75.1,75.0,29.96,SSE,149,0.0,0.0,98,0.00,,,0.00,weatherlink.com 1.10,2013-07-24 06:16:00,
2013-07-24 02:31:00,75.2,75.0,29.95,SE,138,1.0,4.0,98,0.01,,,0.01,weatherlink.com 1.10,2013-07-24 06:31:00,
2013-07-24 02:46:00,75.1,75.0,29.94,South,190,0.0,2.0,98,0.01,,,0.01,weatherlink.com 1.10,2013-07-24 06:46:00,
2013-07-24 03:16:00,75.0,74.0,29.94,SSW,202,0.0,1.0,98,0.01,,,0.01,weatherlink.com 1.10,2013-07-24 07:16:00,
2013-07-24 03:31:00,74.9,74.0,29.94,SSE,155,0.0,2.0,98,0.00,,,0.01,weatherlink.com 1.10,2013-07-24 07:31:00,
2013-07-24 03:46:00,74.9,74.0,29.93,SSE,153,0.0,3.0,98,0.00,,,0.01,weatherlink.com 1.10,2013-07-24 07:46:00,
2013-07-24 04:01:00,74.7,74.0,29.93,SW,218,0.0,1.0,98,0.00,,,0.01,weatherlink.com 1.10,2013-07-24 08:01:00,
2013-07-24 04:16:00,74.6,74.0,29.93,SSW,212,0.0,1.0,98,0.00,,,0.01,weatherlink.com 1.10,2013-07-24 08:16:00,
2013-07-24 04:31:00,74.5,74.0,29.92,SSW,197,0.0,1.0,98,0.00,,,0.01,weatherlink.com 1.10,2013-07-24 08:31:00,
2013-07-24 04:46:00,74.4,74.0,29.93,SW,214,0.0,1.0,98,0.00,,,0.01,weatherlink.com 1.10,2013-07-24 08:46:00,
2013-07-24 05:01:00,74.5,74.0,29.92,SW,214,0.0,1.0,98,0.00,,,0.01,weatherlink.com 1.10,2013-07-24 09:01:00,
2013-07-24 05:16:00,74.5,74.0,29.92,SSW,208,0.0,1.0,98,0.00,,,0.01,weatherlink.com 1.10,2013-07-24 09:16:00,
2013-07-24 05:31:00,74.6,74.0,29.93,SW,229,0.0,1.0,98,0.00,,,0.01,weatherlink.com 1.10,2013-07-24 09:31:00,
2013-07-24 05:46:00,74.8,74.0,29.92,SSW,205,2.0,2.0,98,0.00,,,0.01,weatherlink.com 1.10,2013-07-24 09:46:00,
2013-07-24 06:01:00,74.8,74.0,29.92,SSW,211,1.0,2.0,98,0.00,,,0.01,weatherlink.com 1.10,2013-07-24 10:01:00,
2013-07-24 06:16:00,74.9,74.0,29.92,South,183,0.0,3.0,98,0.00,,,0.01,weatherlink.com 1.10,2013-07-24 10:16:00,
2013-07-24 06:31:00,74.8,74.0,29.93,SW,214,0.0,1.0,98,0.00,,,0.01,weatherlink.com 1.10,2013-07-24 10:31:00,
2013-07-24 06:46:00,75.0,74.0,29.93,SSW,203,0.0,1.0,98,0.00,,,0.01,weatherlink.com 1.10,2013-07-24 10:46:00,
2013-07-24 07:01:00,75.1,75.0,29.94,SSE,160,2.0,2.0,98,0.00,,,0.01,weatherlink.com 1.10,2013-07-24 11:01:00,
2013-07-24 07:16:00,75.2,74.0,29.94,SSE,152,1.0,2.0,97,0.00,,,0.01,weatherlink.com 1.10,2013-07-24 11:16:00,
2013-07-24 07:31:00,75.7,75.0,29.94,SSW,207,0.0,1.0,98,0.00,,,0.01,weatherlink.com 1.10,2013-07-24 11:31:00,
2013-07-24 07:46:00,76.1,75.0,29.94,SSW,211,0.0,1.0,97,0.00,,,0.01,weatherlink.com 1.10,2013-07-24 11:46:00,
2013-07-24 08:01:00,76.9,76.0,29.95,SSW,195,1.0,2.0,97,0.00,,,0.01,weatherlink.com 1.10,2013-07-24 12:01:00,
2013-07-24 08:17:00,78.1,77.0,29.95,SE,139,0.0,3.0,96,0.00,,,0.01,weatherlink.com 1.10,2013-07-24 12:17:00,
2013-07-24 08:32:00,79.9,78.0,29.95,SSW,212,0.0,2.0,93,0.00,,,0.01,weatherlink.com 1.10,2013-07-24 12:32:00,
2013-07-24 08:47:00,81.1,78.0,29.96,SW,222,0.0,2.0,91,0.00,,,0.01,weatherlink.com 1.10,2013-07-24 12:47:00,
2013-07-24 09:02:00,81.9,78.0,29.96,West,281,1.0,5.0,89,0.00,,,0.01,weatherlink.com 1.10,2013-07-24 13:02:00,
2013-07-24 09:17:00,83.4,80.0,29.96,SW,219,1.0,5.0,88,0.00,,,0.01,weatherlink.com 1.10,2013-07-24 13:17:00,
2013-07-24 09:32:00,84.5,79.0,29.96,SE,138,3.0,4.0,84,0.00,,,0.01,weatherlink.com 1.10,2013-07-24 13:32:00,
2013-07-24 09:47:00,83.6,78.0,29.97,WSW,239,0.0,6.0,84,0.00,,,0.01,weatherlink.com 1.10,2013-07-24 13:47:00,
2013-07-24 10:02:00,85.4,79.0,29.96,WSW,241,0.0,7.0,82,0.00,,,0.01,weatherlink.com 1.10,2013-07-24 14:02:00,
2013-07-24 10:17:00,85.6,79.0,29.96,NW,312,4.0,6.0,80,0.00,,,0.01,weatherlink.com 1.10,2013-07-24 14:17:00,
2013-07-24 10:32:00,86.6,80.0,29.96,WNW,302,3.0,7.0,81,0.00,,,0.01,weatherlink.com 1.10,2013-07-24 14:32:00,
2013-07-24 10:47:00,86.6,79.0,29.96,WNW,302,3.0,9.0,78,0.00,,,0.01,weatherlink.com 1.10,2013-07-24 14:47:00,
2013-07-24 11:02:00,84.3,78.0,29.97,SW,222,3.0,13.0,81,0.00,,,0.01,weatherlink.com 1.10,2013-07-24 15:02:00,
2013-07-24 11:17:00,86.0,79.0,29.97,WNW,300,4.0,13.0,79,0.00,,,0.01,weatherlink.com 1.10,2013-07-24 15:17:00,
2013-07-24 11:32:00,81.5,77.0,29.97,WNW,298,2.0,13.0,87,0.03,,,0.04,weatherlink.com 1.10,2013-07-24 15:32:00,
2013-07-24 11:47:00,82.9,79.0,29.96,WNW,285,2.0,15.0,89,0.03,,,0.04,weatherlink.com 1.10,2013-07-24 15:47:00,
2013-07-24 12:02:00,84.8,79.0,29.96,WSW,256,6.0,8.0,83,0.03,,,0.04,weatherlink.com 1.10,2013-07-24 16:02:00,
2013-07-24 12:17:00,84.2,78.0,29.96,WNW,286,3.0,12.0,82,0.03,,,0.04,weatherlink.com 1.10,2013-07-24 16:17:00,
2013-07-24 12:32:00,85.6,79.0,29.95,ENE,63,1.0,11.0,80,0.00,,,0.04,weatherlink.com 1.10,2013-07-24 16:32:00,
2013-07-24 12:47:00,87.1,79.0,29.95,WNW,290,6.0,10.0,76,0.00,,,0.04,weatherlink.com 1.10,2013-07-24 16:47:00,
2013-07-24 13:03:00,86.5,79.0,29.95,WSW,250,4.0,9.0,77,0.00,,,0.04,weatherlink.com 1.10,2013-07-24 17:03:00,
2013-07-24 13:17:00,84.2,77.0,29.95,West,259,4.0,13.0,80,0.02,,,0.06,weatherlink.com 1.10,2013-07-24 17:17:00,
2013-07-24 13:32:00,84.9,78.0,29.94,SW,235,1.0,10.0,80,0.02,,,0.06,weatherlink.com 1.10,2013-07-24 17:32:00,
2013-07-24 13:47:00,84.4,79.0,29.94,West,260,4.0,9.0,83,0.02,,,0.06,weatherlink.com 1.10,2013-07-24 17:47:00,
2013-07-24 14:02:00,85.5,78.0,29.94,WSW,256,0.0,11.0,78,0.02,,,0.06,weatherlink.com 1.10,2013-07-24 18:02:00,
2013-07-24 14:18:00,86.2,79.0,29.94,NNE,15,6.0,8.0,80,0.00,,,0.06,weatherlink.com 1.10,2013-07-24 18:18:00,
2013-07-24 14:32:00,84.4,78.0,29.93,NW,309,4.0,9.0,82,0.00,,,0.06,weatherlink.com 1.10,2013-07-24 18:32:00,
2013-07-24 14:47:00,84.0,78.0,29.93,NNW,334,5.0,8.0,83,0.00,,,0.06,weatherlink.com 1.10,2013-07-24 18:47:00,
2013-07-24 15:02:00,83.5,79.0,29.93,NE,56,1.0,5.0,85,0.00,,,0.06,weatherlink.com 1.10,2013-07-24 19:02:00,
2013-07-24 15:17:00,82.8,78.0,29.93,NNE,13,0.0,5.0,84,0.00,,,0.06,weatherlink.com 1.10,2013-07-24 19:17:00,
2013-07-24 15:32:00,84.0,79.0,29.92,NE,35,1.0,3.0,85,0.00,,,0.06,weatherlink.com 1.10,2013-07-24 19:32:00,
2013-07-24 15:47:00,85.8,78.0,29.91,SE,131,1.0,7.0,78,0.00,,,0.06,weatherlink.com 1.10,2013-07-24 19:47:00,
2013-07-24 16:02:00,83.5,77.0,29.91,SSE,149,0.0,6.0,80,0.00,,,0.06,weatherlink.com 1.10,2013-07-24 20:02:00,
2013-07-24 16:17:00,84.2,78.0,29.90,North,351,0.0,4.0,81,0.00,,,0.06,weatherlink.com 1.10,2013-07-24 20:17:00,
2013-07-24 16:32:00,85.8,78.0,29.89,East,94,0.0,4.0,78,0.00,,,0.06,weatherlink.com 1.10,2013-07-24 20:32:00,
2013-07-24 16:47:00,86.8,77.0,29.89,West,278,1.0,6.0,73,0.00,,,0.06,weatherlink.com 1.10,2013-07-24 20:47:00,
2013-07-24 17:02:00,89.5,76.0,29.89,WNW,287,3.0,7.0,65,0.00,,,0.06,weatherlink.com 1.10,2013-07-24 21:02:00,
2013-07-24 17:17:00,88.8,76.0,29.89,South,184,3.0,7.0,67,0.00,,,0.06,weatherlink.com 1.10,2013-07-24 21:17:00,
2013-07-24 17:32:00,89.3,77.0,29.89,SW,228,0.0,10.0,67,0.00,,,0.06,weatherlink.com 1.10,2013-07-24 21:32:00,
2013-07-24 17:47:00,88.6,77.0,29.89,NW,316,3.0,9.0,68,0.00,,,0.06,weatherlink.com 1.10,2013-07-24 21:47:00,
2013-07-24 18:02:00,88.6,76.0,29.90,West,275,3.0,12.0,67,0.00,,,0.06,weatherlink.com 1.10,2013-07-24 22:02:00,
2013-07-24 18:17:00,88.0,76.0,29.89,WNW,292,1.0,15.0,67,0.00,,,0.06,weatherlink.com 1.10,2013-07-24 22:17:00,
2013-07-24 18:32:00,86.2,77.0,29.90,WSW,257,0.0,4.0,74,0.00,,,0.06,weatherlink.com 1.10,2013-07-24 22:32:00,
2013-07-24 18:48:00,85.3,77.0,29.90,West,263,1.0,3.0,76,0.00,,,0.06,weatherlink.com 1.10,2013-07-24 22:48:00,
2013-07-24 19:03:00,84.6,77.0,29.91,WSW,256,5.0,8.0,78,0.00,,,0.06,weatherlink.com 1.10,2013-07-24 23:03:00,
2013-07-24 19:18:00,81.0,78.0,29.92,SW,226,0.0,1.0,89,0.14,,,0.20,weatherlink.com 1.10,2013-07-24 23:18:00,
2013-07-24 19:33:00,80.3,77.0,29.93,SSW,198,0.0,1.0,88,0.14,,,0.20,weatherlink.com 1.10,2013-07-24 23:33:00,
2013-07-24 19:48:00,79.4,76.0,29.93,WSW,248,0.0,0.0,90,0.14,,,0.20,weatherlink.com 1.10,2013-07-24 23:48:00,
2013-07-24 20:03:00,78.9,76.0,29.93,SSW,208,0.0,0.0,91,0.14,,,0.20,weatherlink.com 1.10,2013-07-25 00:03:00,
2013-07-24 20:18:00,78.6,76.0,29.93,SW,233,0.0,0.0,92,0.00,,,0.20,weatherlink.com 1.10,2013-07-25 00:18:00,
2013-07-24 20:33:00,78.3,76.0,29.93,SW,233,0.0,0.0,93,0.00,,,0.20,weatherlink.com 1.10,2013-07-25 00:33:00,
2013-07-24 20:48:00,78.3,77.0,29.93,SW,233,0.0,0.0,94,0.00,,,0.20,weatherlink.com 1.10,2013-07-25 00:48:00,
2013-07-24 21:03:00,78.1,76.0,29.93,SW,233,0.0,0.0,94,0.00,,,0.20,weatherlink.com 1.10,2013-07-25 01:03:00,
2013-07-24 21:18:00,78.1,76.0,29.93,SW,233,0.0,0.0,94,0.00,,,0.20,weatherlink.com 1.10,2013-07-25 01:18:00,
2013-07-24 21:33:00,78.1,76.0,29.93,SSW,210,0.0,0.0,94,0.00,,,0.20,weatherlink.com 1.10,2013-07-25 01:33:00,
2013-07-24 21:48:00,77.9,76.0,29.93,SSW,212,0.0,0.0,94,0.00,,,0.20,weatherlink.com 1.10,2013-07-25 01:48:00,
2013-07-24 22:03:00,77.7,76.0,29.93,SW,224,0.0,0.0,94,0.00,,,0.20,weatherlink.com 1.10,2013-07-25 02:03:00,
2013-07-24 22:18:00,77.6,76.0,29.93,SW,219,0.0,0.0,94,0.00,,,0.20,weatherlink.com 1.10,2013-07-25 02:18:00,
2013-07-24 22:33:00,77.5,76.0,29.93,SW,224,0.0,0.0,94,0.00,,,0.20,weatherlink.com 1.10,2013-07-25 02:33:00,
2013-07-24 22:48:00,77.4,76.0,29.93,SW,224,0.0,0.0,94,0.00,,,0.20,weatherlink.com 1.10,2013-07-25 02:48:00,
2013-07-24 23:03:00,77.4,76.0,29.93,SW,222,0.0,0.0,94,0.00,,,0.20,weatherlink.com 1.10,2013-07-25 03:03:00,
2013-07-24 23:18:00,77.4,76.0,29.93,SW,235,0.0,0.0,94,0.00,,,0.20,weatherlink.com 1.10,2013-07-25 03:18:00,
2013-07-24 23:48:00,76.9,75.0,29.93,SW,216,0.0,0.0,94,0.00,,,0.20,weatherlink.com 1.10,2013-07-25 03:48:00,